Time;durP1;ratioP1;P1;durP2;ratioP2;P2;SDS_P1;SDS_P2;PMS_P1;PMS_P2;Temp;Humidity;BMP_temperature;BMP_pressure;BME280_temperature;BME280_humidity;BME280_pressure;Samples;Min_cycle;Max_cycle;Signal;HPM_P1;HPM_P2
2020/12/24 00:01:26;;;;;;;0.70;0.30;;;9.00;99.90;;;;;;5033367;28;20471;-67
2020/12/24 00:03:52;;;;;;;1.13;0.50;;;9.00;99.90;;;;;;5033097;28;20415;-68
2020/12/24 00:06:19;;;;;;;0.43;0.40;;;9.00;99.90;;;;;;5033073;28;20903;-67
2020/12/24 00:08:45;;;;;;;1.03;0.40;;;8.90;99.90;;;;;;5033034;28;20914;-67
2020/12/24 00:11:12;;;;;;;0.40;0.40;;;8.90;99.90;;;;;;5033207;28;20454;-67
2020/12/24 00:13:39;;;;;;;1.50;0.40;;;8.90;99.90;;;;;;5032958;28;20451;-68
2020/12/24 00:16:05;;;;;;;0.50;0.40;;;8.80;99.90;;;;;;5033219;28;20483;-68
2020/12/24 00:18:31;;;;;;;0.67;0.40;;;8.80;99.90;;;;;;5033221;28;20458;-67
2020/12/24 00:20:57;;;;;;;0.40;0.40;;;8.90;99.90;;;;;;5032816;28;20442;-67
2020/12/24 00:23:23;;;;;;;1.20;0.40;;;8.90;99.90;;;;;;5033157;28;20446;-67
2020/12/24 00:25:50;;;;;;;0.40;0.40;;;8.90;99.90;;;;;;5033156;28;20442;-67
2020/12/24 00:28:17;;;;;;;0.70;0.40;;;8.90;99.90;;;;;;5033092;28;20450;-67
2020/12/24 00:30:43;;;;;;;0.60;0.40;;;8.80;99.90;;;;;;5033075;28;20450;-67
2020/12/24 00:33:10;;;;;;;0.50;0.40;;;8.90;99.90;;;;;;5032985;28;20466;-67
2020/12/24 00:35:36;;;;;;;0.90;0.40;;;8.80;99.90;;;;;;5032966;28;20446;-67
2020/12/24 00:38:02;;;;;;;2.00;0.43;;;8.80;99.90;;;;;;5032709;28;20505;-67
2020/12/24 00:40:28;;;;;;;0.40;0.30;;;8.80;99.90;;;;;;5033016;28;20438;-67
2020/12/24 00:42:55;;;;;;;0.40;0.40;;;8.90;99.90;;;;;;5033029;28;20521;-70
2020/12/24 00:45:22;;;;;;;3.23;0.40;;;8.90;99.90;;;;;;5032948;28;20457;-70
2020/12/24 00:47:48;;;;;;;0.50;0.43;;;8.90;99.90;;;;;;5032601;28;20953;-70
2020/12/24 00:50:14;;;;;;;0.53;0.40;;;8.90;99.90;;;;;;5032893;28;20458;-70
2020/12/24 00:52:41;;;;;;;0.60;0.40;;;8.90;99.90;;;;;;5034386;28;20470;-70
2020/12/24 00:55:07;;;;;;;0.50;0.40;;;8.90;99.90;;;;;;5036118;28;20486;-70
2020/12/24 00:57:33;;;;;;;0.73;0.40;;;8.90;99.90;;;;;;5036473;28;20532;-70
2020/12/24 00:59:59;;;;;;;0.40;0.40;;;8.90;99.90;;;;;;5036461;28;20453;-70
2020/12/24 01:02:26;;;;;;;0.47;0.40;;;8.90;99.90;;;;;;5036056;28;20458;-70
2020/12/24 01:04:52;;;;;;;1.00;0.40;;;8.90;99.90;;;;;;5036395;28;20458;-69
2020/12/24 01:07:18;;;;;;;0.40;0.40;;;8.90;99.90;;;;;;5036364;28;20446;-70
2020/12/24 01:09:44;;;;;;;1.33;0.53;;;8.90;99.90;;;;;;5036332;28;20442;-70
2020/12/24 01:12:11;;;;;;;2.87;0.60;;;8.90;99.90;;;;;;5035853;28;20997;-69
2020/12/24 01:14:37;;;;;;;0.50;0.40;;;8.90;99.90;;;;;;5036281;28;20450;-70
2020/12/24 01:17:03;;;;;;;0.70;0.40;;;9.00;99.90;;;;;;5036103;28;20474;-69
2020/12/24 01:19:30;;;;;;;1.00;0.50;;;9.00;99.90;;;;;;5035870;28;20819;-70
2020/12/24 01:21:56;;;;;;;0.70;0.50;;;9.00;99.90;;;;;;5036048;28;20470;-70
2020/12/24 01:24:22;;;;;;;0.40;0.40;;;8.90;99.90;;;;;;5035754;28;20863;-70
2020/12/24 01:26:49;;;;;;;1.23;0.43;;;8.90;99.90;;;;;;5036061;28;20446;-70
2020/12/24 01:29:16;;;;;;;1.17;0.50;;;8.90;99.90;;;;;;5036020;28;20785;-70
2020/12/24 01:31:45;;;;;;;0.47;0.40;;;8.80;99.90;;;;;;5035866;28;20454;-70
2020/12/24 01:34:12;;;;;;;1.17;0.40;;;8.90;99.90;;;;;;5035560;28;20486;-70
2020/12/24 01:36:39;;;;;;;0.33;0.30;;;8.80;99.90;;;;;;5035758;28;20475;-70
2020/12/24 01:39:05;;;;;;;0.40;0.40;;;8.80;99.90;;;;;;5035491;28;20461;-70
2020/12/24 01:41:32;;;;;;;0.97;0.40;;;8.70;99.90;;;;;;5035676;28;20470;-70
2020/12/24 01:43:58;;;;;;;0.50;0.50;;;8.60;99.90;;;;;;5035723;28;20450;-70
2020/12/24 01:46:25;;;;;;;0.40;0.40;;;8.60;99.90;;;;;;5035687;28;20806;-69
2020/12/24 01:48:51;;;;;;;1.63;0.40;;;8.60;99.90;;;;;;5035298;28;20470;-69
2020/12/24 01:51:25;;;;;;;0.40;0.40;;;8.60;99.90;;;;;;5035518;28;20462;-69
2020/12/24 01:53:53;;;;;;;1.17;1.07;;;8.50;99.90;;;;;;5035417;28;20565;-69
2020/12/24 01:56:20;;;;;;;0.40;0.30;;;8.40;99.90;;;;;;5035501;28;20897;-70
2020/12/24 01:58:47;;;;;;;0.50;0.50;;;8.40;99.90;;;;;;5035600;28;20431;-69
2020/12/24 02:01:13;;;;;;;0.40;0.40;;;8.40;99.90;;;;;;5035051;28;20828;-69
2020/12/24 02:03:39;;;;;;;0.77;0.50;;;8.40;99.90;;;;;;5034956;28;20448;-70
2020/12/24 02:06:05;;;;;;;0.80;0.40;;;8.30;99.90;;;;;;5035348;28;20450;-69
2020/12/24 02:08:32;;;;;;;0.60;0.50;;;8.30;99.90;;;;;;5035040;28;20461;-69
2020/12/24 02:11:00;;;;;;;0.43;0.40;;;8.30;99.90;;;;;;5035193;28;20446;-70
2020/12/24 02:13:26;;;;;;;1.37;0.50;;;8.30;99.90;;;;;;5035216;28;20850;-70
2020/12/24 02:15:52;;;;;;;1.17;0.50;;;8.30;99.90;;;;;;5035094;28;20478;-70
2020/12/24 02:18:19;;;;;;;0.63;0.63;;;8.20;99.90;;;;;;5034809;28;20462;-70
2020/12/24 02:20:46;;;;;;;0.57;0.50;;;8.20;99.90;;;;;;5035902;28;20458;-70
2020/12/24 02:23:12;;;;;;;0.40;0.30;;;8.20;99.90;;;;;;5034662;28;20467;-70
2020/12/24 02:25:40;;;;;;;1.13;0.40;;;8.20;99.90;;;;;;5034676;28;20514;-70
2020/12/24 02:28:06;;;;;;;0.40;0.40;;;8.10;99.90;;;;;;5034631;28;20451;-70
2020/12/24 02:30:33;;;;;;;0.30;0.30;;;8.20;99.90;;;;;;5034889;28;20457;-70
2020/12/24 02:32:59;;;;;;;0.50;0.30;;;8.10;99.90;;;;;;5034770;28;20463;-70
2020/12/24 02:35:25;;;;;;;0.60;0.60;;;8.00;99.90;;;;;;5034500;28;20446;-70
2020/12/24 02:37:52;;;;;;;0.40;0.30;;;7.80;99.90;;;;;;5034652;28;20494;-70
2020/12/24 02:40:18;;;;;;;0.53;0.40;;;7.80;99.90;;;;;;5034682;28;20454;-70
2020/12/24 02:42:44;;;;;;;0.50;0.40;;;7.70;99.90;;;;;;5034544;28;20462;-70
2020/12/24 02:45:11;;;;;;;0.40;0.40;;;7.60;99.90;;;;;;5034618;28;20450;-70
2020/12/24 02:47:37;;;;;;;0.80;0.40;;;7.60;99.90;;;;;;5034590;28;20446;-70
2020/12/24 02:50:05;;;;;;;0.40;0.30;;;7.60;99.90;;;;;;5034490;28;20455;-70
2020/12/24 02:52:31;;;;;;;0.97;0.40;;;7.60;99.90;;;;;;5034367;28;20482;-70
2020/12/24 02:54:58;;;;;;;0.40;0.33;;;7.70;99.90;;;;;;5033957;28;20879;-70
2020/12/24 02:57:24;;;;;;;0.40;0.30;;;7.60;99.90;;;;;;5033914;28;20509;-70
2020/12/24 02:59:51;;;;;;;0.43;0.30;;;7.70;99.90;;;;;;5034271;28;20505;-70
2020/12/24 03:02:17;;;;;;;0.40;0.30;;;7.70;99.90;;;;;;5034145;28;20463;-70
2020/12/24 03:04:43;;;;;;;0.60;0.40;;;7.70;99.90;;;;;;5034184;28;20864;-70
2020/12/24 03:07:09;;;;;;;0.50;0.43;;;7.60;99.90;;;;;;5034179;28;20465;-70
2020/12/24 03:09:35;;;;;;;0.50;0.40;;;7.70;99.90;;;;;;5034095;28;20446;-70
2020/12/24 03:12:02;;;;;;;0.40;0.30;;;7.70;99.90;;;;;;5033987;28;20473;-70
2020/12/24 03:14:29;;;;;;;0.40;0.30;;;7.70;99.90;;;;;;5033435;28;20446;-70
2020/12/24 03:16:55;;;;;;;0.50;0.40;;;7.80;99.90;;;;;;5033375;28;20852;-70
2020/12/24 03:19:21;;;;;;;0.40;0.30;;;7.80;99.90;;;;;;5033938;28;20473;-70
2020/12/24 03:21:47;;;;;;;0.40;0.30;;;7.80;99.90;;;;;;5033835;28;20466;-70
2020/12/24 03:24:13;;;;;;;0.40;0.40;;;7.90;99.90;;;;;;5033873;28;20446;-70
2020/12/24 03:26:39;;;;;;;0.47;0.40;;;7.90;99.90;;;;;;5033850;28;20480;-70
2020/12/24 03:29:06;;;;;;;0.37;0.30;;;7.90;99.90;;;;;;5033738;28;20478;-70
2020/12/24 03:31:33;;;;;;;0.40;0.40;;;8.00;99.90;;;;;;5033695;28;20489;-70
2020/12/24 03:33:59;;;;;;;0.40;0.40;;;7.90;99.90;;;;;;5033678;28;20446;-70
2020/12/24 03:36:26;;;;;;;0.40;0.40;;;7.90;99.90;;;;;;5033564;28;20535;-70
2020/12/24 03:38:52;;;;;;;3.17;0.30;;;7.80;99.90;;;;;;5033308;28;20996;-70
2020/12/24 03:41:18;;;;;;;0.40;0.40;;;7.80;99.90;;;;;;5033542;28;20470;-70
2020/12/24 03:43:44;;;;;;;0.40;0.40;;;7.80;99.90;;;;;;5033543;28;20446;-71
2020/12/24 03:46:11;;;;;;;0.40;0.30;;;7.80;99.90;;;;;;5033515;28;20493;-70
2020/12/24 03:48:37;;;;;;;0.40;0.40;;;7.90;99.90;;;;;;5033176;28;20450;-70
2020/12/24 03:51:04;;;;;;;0.40;0.40;;;7.80;99.90;;;;;;5033391;28;20446;-70
2020/12/24 03:53:30;;;;;;;0.30;0.30;;;7.70;99.90;;;;;;5033240;28;20449;-70
2020/12/24 03:55:56;;;;;;;2.40;0.40;;;7.80;99.90;;;;;;5033381;28;20427;-70
2020/12/24 03:58:22;;;;;;;1.33;0.40;;;7.60;99.90;;;;;;5033374;28;20497;-70
2020/12/24 04:00:48;;;;;;;0.50;0.40;;;7.50;99.90;;;;;;5033067;28;20840;-70
2020/12/24 04:03:15;;;;;;;0.50;0.40;;;7.60;99.90;;;;;;5033266;28;20474;-70
2020/12/24 04:05:41;;;;;;;1.90;0.47;;;7.70;99.90;;;;;;5033011;28;20818;-70
2020/12/24 04:08:08;;;;;;;0.40;0.40;;;7.70;99.90;;;;;;5033305;28;20446;-70
2020/12/24 04:10:34;;;;;;;0.47;0.47;;;7.60;99.90;;;;;;5033281;28;20442;-70
2020/12/24 04:13:00;;;;;;;1.73;0.40;;;7.70;99.90;;;;;;5032910;28;20978;-69
2020/12/24 04:15:26;;;;;;;1.00;0.40;;;7.70;99.90;;;;;;5033214;28;20505;-70
2020/12/24 04:17:52;;;;;;;0.30;0.30;;;7.80;99.90;;;;;;5033110;28;20489;-70
2020/12/24 04:20:19;;;;;;;0.67;0.30;;;7.90;99.90;;;;;;5033191;28;20449;-70
2020/12/24 04:22:46;;;;;;;3.27;0.40;;;7.90;99.90;;;;;;5033097;28;20473;-70
2020/12/24 04:25:12;;;;;;;0.40;0.30;;;7.90;99.90;;;;;;5033164;28;20439;-70
2020/12/24 04:27:39;;;;;;;1.57;0.30;;;7.80;99.90;;;;;;5036149;28;20895;-70
2020/12/24 04:30:06;;;;;;;1.00;0.40;;;7.90;99.90;;;;;;5037206;28;20817;-70
2020/12/24 04:32:33;;;;;;;0.50;0.40;;;7.90;99.90;;;;;;5037035;28;20466;-70
2020/12/24 04:34:59;;;;;;;0.90;0.40;;;7.70;99.90;;;;;;5037062;28;20787;-70
2020/12/24 04:37:26;;;;;;;1.07;0.40;;;7.70;99.90;;;;;;5036953;28;20474;-70
2020/12/24 04:39:52;;;;;;;1.07;0.50;;;7.70;99.90;;;;;;5036923;28;20496;-70
2020/12/24 04:42:21;;;;;;;1.00;0.40;;;7.70;99.90;;;;;;5036871;28;20824;-70
2020/12/24 04:44:48;;;;;;;0.40;0.40;;;7.60;99.90;;;;;;5036906;28;20447;-70
2020/12/24 04:47:17;;;;;;;0.50;0.30;;;7.50;99.90;;;;;;5036852;28;20521;-70
2020/12/24 04:49:43;;;;;;;0.30;0.30;;;7.40;99.90;;;;;;5036774;28;20447;-70
2020/12/24 04:52:09;;;;;;;0.43;0.30;;;7.20;99.90;;;;;;5036677;28;20462;-70
2020/12/24 04:54:38;;;;;;;1.53;0.40;;;7.10;99.90;;;;;;5036387;28;20486;-70
2020/12/24 04:57:07;;;;;;;0.40;0.37;;;7.10;99.90;;;;;;5036550;28;21050;-70
2020/12/24 04:59:34;;;;;;;0.60;0.40;;;7.00;99.90;;;;;;5036598;28;20529;-70
2020/12/24 05:02:01;;;;;;;1.10;0.37;;;6.90;99.90;;;;;;5036471;28;20478;-70
2020/12/24 05:04:28;;;;;;;1.43;0.40;;;6.80;99.90;;;;;;5036527;28;20536;-70
2020/12/24 05:07:02;;;;;;;0.30;0.30;;;6.70;99.90;;;;;;5036506;28;20813;-70
2020/12/24 05:09:28;;;;;;;0.40;0.40;;;6.70;99.90;;;;;;5036512;28;20485;-70
2020/12/24 05:11:55;;;;;;;1.17;0.30;;;6.60;99.90;;;;;;5036335;28;20807;-70
2020/12/24 05:14:23;;;;;;;1.90;0.50;;;6.50;99.90;;;;;;5036037;28;20453;-70
2020/12/24 05:17:00;;;;;;;0.40;0.40;;;6.60;99.90;;;;;;5036258;28;20596;-70
2020/12/24 05:19:28;;;;;;;0.50;0.30;;;6.60;99.90;;;;;;5036251;28;20446;-70
2020/12/24 05:21:55;;;;;;;0.40;0.40;;;6.50;99.90;;;;;;5036132;28;20469;-70
2020/12/24 05:24:23;;;;;;;0.50;0.40;;;6.50;99.90;;;;;;5036189;28;20442;-70
2020/12/24 05:26:50;;;;;;;0.50;0.50;;;6.50;99.90;;;;;;5036066;28;20439;-70
2020/12/24 05:29:18;;;;;;;0.83;0.40;;;6.50;99.90;;;;;;5036068;28;20457;-70
2020/12/24 05:31:44;;;;;;;2.93;0.50;;;6.60;99.90;;;;;;5035931;28;20521;-70
2020/12/24 05:34:19;;;;;;;0.40;0.40;;;6.70;99.90;;;;;;5035964;28;20451;-70
2020/12/24 05:36:45;;;;;;;0.60;0.40;;;6.60;99.90;;;;;;5035909;28;20557;-70
2020/12/24 05:39:11;;;;;;;0.87;0.50;;;6.60;99.90;;;;;;5035079;28;20533;-70
2020/12/24 05:41:38;;;;;;;0.70;0.40;;;6.50;99.90;;;;;;5035771;28;20478;-70
2020/12/24 05:44:06;;;;;;;1.90;0.40;;;6.50;99.90;;;;;;5035838;28;20447;-70
2020/12/24 05:46:41;;;;;;;0.80;0.40;;;6.40;99.90;;;;;;5035746;28;20501;-70
2020/12/24 05:49:10;;;;;;;0.40;0.40;;;6.40;99.90;;;;;;5035432;28;20834;-70
2020/12/24 05:51:38;;;;;;;0.43;0.40;;;6.40;99.90;;;;;;5036014;28;20467;-70
2020/12/24 05:54:05;;;;;;;0.40;0.40;;;6.40;99.90;;;;;;5035346;28;20536;-70
2020/12/24 05:56:33;;;;;;;0.60;0.40;;;6.40;99.90;;;;;;5035487;28;20482;-70
2020/12/24 05:59:04;;;;;;;0.60;0.50;;;6.30;99.90;;;;;;5035501;28;20457;-71
2020/12/24 06:01:37;;;;;;;0.40;0.40;;;6.30;99.90;;;;;;5035437;28;20517;-70
2020/12/24 06:04:05;;;;;;;0.40;0.40;;;6.30;99.90;;;;;;5035458;28;20522;-70
2020/12/24 06:06:47;;;;;;;2.73;0.70;;;6.30;99.90;;;;;;5035378;28;20512;-70
2020/12/24 06:09:16;;;;;;;1.13;0.50;;;6.30;99.90;;;;;;5032659;28;20965;-70
2020/12/24 06:11:50;;;;;;;1.90;0.50;;;6.30;99.90;;;;;;5035183;28;20469;-70
2020/12/24 06:14:31;;;;;;;1.73;0.90;;;6.30;99.90;;;;;;5035274;28;20480;-70
2020/12/24 06:17:06;;;;;;;1.33;0.50;;;6.30;99.90;;;;;;5035151;28;20501;-70
2020/12/24 06:19:42;;;;;;;0.40;0.40;;;6.40;99.90;;;;;;5034890;28;20434;-70
2020/12/24 06:22:09;;;;;;;0.50;0.50;;;6.40;99.90;;;;;;5034703;28;20977;-70
2020/12/24 06:24:38;;;;;;;0.70;0.50;;;6.50;99.90;;;;;;5035010;28;20450;-70
2020/12/24 06:27:09;;;;;;;0.50;0.40;;;6.50;99.90;;;;;;5034975;28;20450;-70
2020/12/24 06:29:40;;;;;;;0.80;0.40;;;6.60;99.90;;;;;;5034996;28;20439;-70
2020/12/24 06:32:09;;;;;;;0.50;0.50;;;6.60;99.90;;;;;;5034824;28;20494;-70
2020/12/24 06:34:40;;;;;;;0.80;0.50;;;6.60;99.90;;;;;;5034488;28;20857;-69
2020/12/24 06:37:15;;;;;;;0.93;0.50;;;6.70;99.90;;;;;;5034760;28;20475;-70
2020/12/24 06:39:46;;;;;;;1.20;0.70;;;6.60;99.90;;;;;;5034696;28;20450;-70
2020/12/24 06:42:40;;;;;;;1.90;0.50;;;6.50;99.90;;;;;;5034372;28;20479;-70
2020/12/24 06:45:09;;;;;;;0.63;0.60;;;6.60;99.90;;;;;;5025288;28;20469;-70
2020/12/24 06:47:35;;;;;;;1.00;0.70;;;6.60;99.90;;;;;;5034563;28;20443;-70
2020/12/24 06:50:21;;;;;;;0.63;0.50;;;6.60;99.90;;;;;;5034505;28;20446;-69
2020/12/24 06:52:48;;;;;;;2.60;0.57;;;6.50;99.90;;;;;;5034042;28;20474;-70
2020/12/24 06:55:16;;;;;;;1.87;0.60;;;6.40;99.90;;;;;;5034061;28;20852;-70
2020/12/24 06:57:43;;;;;;;1.70;0.50;;;6.40;99.90;;;;;;5034148;28;20532;-70
2020/12/24 07:00:21;;;;;;;1.67;0.60;;;6.40;99.90;;;;;;5034072;28;20458;-70
2020/12/24 07:02:48;;;;;;;1.83;0.60;;;6.40;99.90;;;;;;5034244;28;20462;-70
2020/12/24 07:05:43;;;;;;;1.17;0.80;;;6.30;99.90;;;;;;5034264;28;20833;-70
2020/12/24 07:08:11;;;;;;;0.70;0.60;;;6.40;99.90;;;;;;5034263;28;20446;-70
2020/12/24 07:10:45;;;;;;;2.60;0.50;;;6.50;99.90;;;;;;5034152;28;20447;-69
2020/12/24 07:13:29;;;;;;;0.50;0.50;;;6.70;99.90;;;;;;5034064;28;20473;-69
2020/12/24 07:15:56;;;;;;;0.73;0.60;;;6.80;99.90;;;;;;5034103;28;20431;-70
2020/12/24 07:18:24;;;;;;;0.73;0.73;;;6.80;99.90;;;;;;5033572;28;20857;-70
2020/12/24 07:20:50;;;;;;;1.10;0.47;;;6.80;99.90;;;;;;5033945;28;20455;-70
2020/12/24 07:23:27;;;;;;;3.27;0.77;;;6.70;99.90;;;;;;5033915;28;20469;-70
2020/12/24 07:25:54;;;;;;;4.47;0.50;;;6.80;99.90;;;;;;5033921;28;20791;-70
2020/12/24 07:28:20;;;;;;;1.63;0.60;;;6.80;99.90;;;;;;5033860;28;20442;-70
2020/12/24 07:30:56;;;;;;;0.90;0.60;;;6.80;99.90;;;;;;5033802;28;20446;-70
2020/12/24 07:33:22;;;;;;;1.90;0.60;;;6.90;99.90;;;;;;5033549;28;20430;-70
2020/12/24 07:35:48;;;;;;;3.93;0.67;;;6.80;99.90;;;;;;5033728;28;20817;-70
2020/12/24 07:38:14;;;;;;;1.33;1.03;;;6.90;99.90;;;;;;5033621;28;20490;-70
2020/12/24 07:40:41;;;;;;;0.60;0.60;;;6.90;99.90;;;;;;5033330;28;20443;-70
2020/12/24 07:43:11;;;;;;;1.97;0.50;;;6.90;99.90;;;;;;5033573;28;20459;-69
2020/12/24 07:45:38;;;;;;;3.77;0.60;;;6.90;99.90;;;;;;5033633;28;20431;-70
2020/12/24 07:48:11;;;;;;;3.90;0.70;;;7.10;99.90;;;;;;5033292;28;20423;-70
2020/12/24 07:50:37;;;;;;;1.27;0.70;;;7.20;99.90;;;;;;5033256;28;20566;-70
2020/12/24 07:53:03;;;;;;;3.63;0.70;;;7.40;99.90;;;;;;5033430;28;20501;-70
2020/12/24 07:55:29;;;;;;;0.70;0.40;;;7.40;99.90;;;;;;5033091;28;20513;-70
2020/12/24 07:58:06;;;;;;;2.50;0.50;;;7.50;99.90;;;;;;5033029;28;20469;-70
2020/12/24 08:00:39;;;;;;;11.10;0.70;;;7.50;99.90;;;;;;5033135;28;20484;-70
2020/12/24 08:03:06;;;;;;;2.83;0.70;;;7.50;99.90;;;;;;5033328;28;20604;-70
2020/12/24 08:05:32;;;;;;;4.10;0.53;;;7.60;99.90;;;;;;5033069;28;20853;-69
2020/12/24 08:07:58;;;;;;;0.63;0.60;;;7.60;99.90;;;;;;5033354;28;20435;-70
2020/12/24 08:10:24;;;;;;;2.50;0.90;;;7.80;99.90;;;;;;5033309;28;20427;-70
2020/12/24 08:12:50;;;;;;;1.50;0.87;;;7.70;99.90;;;;;;5033246;28;20501;-70
2020/12/24 08:15:19;;;;;;;3.47;0.67;;;7.80;99.90;;;;;;5033293;28;20488;-70
2020/12/24 08:17:53;;;;;;;1.00;0.57;;;7.70;99.90;;;;;;5033167;28;20473;-70
2020/12/24 08:20:20;;;;;;;2.40;0.50;;;7.70;99.90;;;;;;5032944;28;20434;-69
2020/12/24 08:22:51;;;;;;;1.47;0.50;;;7.70;99.90;;;;;;5032798;28;20978;-70
2020/12/24 08:25:18;;;;;;;0.50;0.50;;;7.60;99.90;;;;;;5033201;28;20459;-70
2020/12/24 08:27:46;;;;;;;1.77;0.50;;;7.70;99.90;;;;;;5033064;28;20443;-70
2020/12/24 08:30:15;;;;;;;1.77;0.50;;;7.70;99.90;;;;;;5033143;28;20803;-67
2020/12/24 08:32:43;;;;;;;1.00;0.40;;;7.60;99.90;;;;;;5033065;28;20470;-67
2020/12/24 08:35:10;;;;;;;0.50;0.50;;;7.50;99.90;;;;;;5033074;28;20449;-67
2020/12/24 08:37:37;;;;;;;1.10;0.50;;;7.40;99.90;;;;;;5033015;28;20872;-67
2020/12/24 08:40:19;;;;;;;1.07;0.40;;;7.30;99.90;;;;;;5033021;28;20871;-67
2020/12/24 08:42:47;;;;;;;0.43;0.40;;;7.20;99.90;;;;;;5032963;28;20517;-66
2020/12/24 08:45:13;;;;;;;0.50;0.47;;;7.20;99.90;;;;;;5032909;28;20542;-66
2020/12/24 08:47:39;;;;;;;1.80;0.50;;;7.10;99.90;;;;;;5032923;28;20450;-67
2020/12/24 08:50:06;;;;;;;2.53;0.50;;;7.10;99.90;;;;;;5032928;28;20465;-67
2020/12/24 08:52:37;;;;;;;1.27;0.40;;;7.10;99.90;;;;;;5032894;28;20521;-66
2020/12/24 08:55:05;;;;;;;1.60;0.50;;;7.10;99.90;;;;;;5032519;28;20901;-66
2020/12/24 08:57:31;;;;;;;0.60;0.40;;;7.10;99.90;;;;;;5032847;28;20478;-67
2020/12/24 08:59:59;;;;;;;1.70;0.40;;;7.20;99.90;;;;;;5032865;28;20438;-67
2020/12/24 09:02:27;;;;;;;2.53;0.57;;;7.30;99.90;;;;;;5032784;28;20470;-67
2020/12/24 09:04:54;;;;;;;3.17;0.40;;;7.30;99.90;;;;;;5032790;28;20458;-67
2020/12/24 09:07:28;;;;;;;1.10;0.60;;;7.40;99.90;;;;;;5032797;28;20474;-67
2020/12/24 09:10:03;;;;;;;0.83;0.40;;;7.50;99.90;;;;;;5032874;28;20437;-67
2020/12/24 09:12:29;;;;;;;0.50;0.50;;;7.50;99.90;;;;;;5032695;28;20465;-67
2020/12/24 09:14:59;;;;;;;2.63;0.50;;;7.50;99.90;;;;;;5035798;28;20962;-67
2020/12/24 09:17:25;;;;;;;0.70;0.43;;;7.50;99.90;;;;;;5035979;28;20490;-67
2020/12/24 09:20:01;;;;;;;0.80;0.40;;;7.60;99.90;;;;;;5036251;28;20445;-67
2020/12/24 09:22:28;;;;;;;0.80;0.40;;;7.60;99.90;;;;;;5036168;28;20601;-67
2020/12/24 09:24:54;;;;;;;0.40;0.40;;;7.60;99.90;;;;;;5036149;28;20458;-66
2020/12/24 09:27:21;;;;;;;0.40;0.40;;;7.60;99.90;;;;;;5036094;28;20446;-67
2020/12/24 09:29:47;;;;;;;1.00;0.40;;;7.50;99.90;;;;;;5036096;28;20435;-67
2020/12/24 09:32:13;;;;;;;0.97;0.50;;;7.60;99.90;;;;;;5035918;28;20503;-67
2020/12/24 09:34:39;;;;;;;3.53;0.50;;;7.70;99.90;;;;;;5035740;28;20497;-67
2020/12/24 09:37:05;;;;;;;0.80;0.50;;;7.80;99.90;;;;;;5035904;28;20459;-67
2020/12/24 09:39:33;;;;;;;2.67;0.40;;;7.90;99.90;;;;;;5035948;28;20450;-67
2020/12/24 09:41:59;;;;;;;0.50;0.50;;;7.90;99.90;;;;;;5035514;28;20901;-67
2020/12/24 09:44:25;;;;;;;1.57;0.40;;;7.90;99.90;;;;;;5035542;28;20968;-67
2020/12/24 09:46:51;;;;;;;5.53;0.50;;;7.80;99.90;;;;;;5035821;28;20438;-66
2020/12/24 09:49:18;;;;;;;0.53;0.40;;;7.80;99.90;;;;;;5035791;28;20431;-67
2020/12/24 09:51:44;;;;;;;1.67;0.60;;;7.80;99.90;;;;;;5035639;28;20521;-66
2020/12/24 09:54:11;;;;;;;0.50;0.50;;;7.80;99.90;;;;;;5035408;28;20475;-72
2020/12/24 09:56:38;;;;;;;2.70;0.40;;;7.80;99.90;;;;;;5035476;28;20451;-73
2020/12/24 09:59:04;;;;;;;1.00;0.40;;;8.00;99.90;;;;;;5035551;28;20447;-69
2020/12/24 10:01:30;;;;;;;0.60;0.40;;;8.00;99.90;;;;;;5035192;28;20848;-68
2020/12/24 10:03:56;;;;;;;1.80;0.40;;;8.10;99.90;;;;;;5035463;28;20435;-67
2020/12/24 10:06:24;;;;;;;0.60;0.50;;;8.10;99.90;;;;;;5035456;28;20482;-67
2020/12/24 10:08:51;;;;;;;0.40;0.33;;;8.00;99.90;;;;;;5035323;28;20431;-67
2020/12/24 10:11:17;;;;;;;2.13;0.50;;;8.10;99.90;;;;;;5035260;28;20497;-67
2020/12/24 10:13:44;;;;;;;1.83;0.43;;;8.10;99.90;;;;;;5035306;28;20795;-68
2020/12/24 10:16:10;;;;;;;0.60;0.40;;;8.20;99.90;;;;;;5034974;28;20797;-68
2020/12/24 10:18:37;;;;;;;1.83;0.40;;;8.20;99.90;;;;;;5034909;28;20863;-68
2020/12/24 10:21:03;;;;;;;0.60;0.40;;;8.20;99.90;;;;;;5035078;28;20438;-68
2020/12/24 10:23:29;;;;;;;1.10;0.40;;;8.30;99.90;;;;;;5034702;28;20820;-68
2020/12/24 10:25:56;;;;;;;1.90;0.50;;;8.40;99.90;;;;;;5035545;28;20427;-68
2020/12/24 10:28:22;;;;;;;1.00;0.50;;;8.50;99.90;;;;;;5034972;28;20427;-69
2020/12/24 10:30:49;;;;;;;0.60;0.40;;;8.60;99.90;;;;;;5034974;28;20427;-68
2020/12/24 10:33:15;;;;;;;2.47;0.43;;;8.80;99.90;;;;;;5034778;28;20467;-68
2020/12/24 10:35:42;;;;;;;0.90;0.50;;;9.10;99.90;;;;;;5034531;28;20434;-68
2020/12/24 10:38:08;;;;;;;0.50;0.50;;;9.40;99.90;;;;;;5034705;28;20475;-68
2020/12/24 10:40:35;;;;;;;0.50;0.50;;;9.60;99.90;;;;;;5034449;28;20435;-69
2020/12/24 10:43:02;;;;;;;0.40;0.40;;;9.60;99.90;;;;;;5034681;28;20471;-68
2020/12/24 10:45:28;;;;;;;1.23;0.50;;;9.60;99.90;;;;;;5034691;28;20435;-68
2020/12/24 10:47:55;;;;;;;1.10;0.40;;;9.60;99.90;;;;;;5034550;28;20419;-68
2020/12/24 10:50:21;;;;;;;0.80;0.80;;;9.70;99.90;;;;;;5034607;28;20485;-68
2020/12/24 10:52:47;;;;;;;0.40;0.40;;;9.70;99.90;;;;;;5034503;28;20462;-68
2020/12/24 10:55:13;;;;;;;0.50;0.40;;;9.70;99.90;;;;;;5034082;28;20474;-69
2020/12/24 10:57:40;;;;;;;0.90;0.50;;;9.80;99.90;;;;;;5034340;28;20463;-69
2020/12/24 11:00:06;;;;;;;0.87;0.50;;;9.90;99.90;;;;;;5034418;28;20427;-68
2020/12/24 11:02:32;;;;;;;2.30;0.40;;;9.90;99.90;;;;;;5034254;28;20520;-68
2020/12/24 11:05:00;;;;;;;1.23;0.40;;;9.90;99.90;;;;;;5034282;28;20431;-68
2020/12/24 11:07:26;;;;;;;0.40;0.40;;;9.80;99.90;;;;;;5034242;28;20529;-68
2020/12/24 11:09:52;;;;;;;0.40;0.40;;;9.70;99.90;;;;;;5034211;28;20454;-68
2020/12/24 11:12:18;;;;;;;0.50;0.50;;;9.60;99.90;;;;;;5034129;28;20470;-68
2020/12/24 11:14:44;;;;;;;0.43;0.40;;;9.50;99.90;;;;;;5034053;28;20454;-69
2020/12/24 11:17:10;;;;;;;0.50;0.37;;;9.50;99.90;;;;;;5034014;28;20600;-69
2020/12/24 11:19:37;;;;;;;0.60;0.40;;;9.50;99.90;;;;;;5034661;28;20461;-68
2020/12/24 11:22:04;;;;;;;0.50;0.40;;;9.60;99.90;;;;;;5033931;28;20466;-68
2020/12/24 11:24:30;;;;;;;0.77;0.37;;;9.60;99.90;;;;;;5033937;28;20442;-68
2020/12/24 11:26:56;;;;;;;0.50;0.50;;;9.70;99.90;;;;;;5033587;28;20447;-68
2020/12/24 11:29:22;;;;;;;0.40;0.40;;;9.80;99.90;;;;;;5033877;28;20450;-68
2020/12/24 11:31:48;;;;;;;0.50;0.30;;;9.80;99.90;;;;;;5033727;28;20473;-68
2020/12/24 11:34:15;;;;;;;0.50;0.50;;;10.10;99.90;;;;;;5033424;28;21069;-68
2020/12/24 11:36:44;;;;;;;0.67;0.50;;;10.30;99.90;;;;;;5032940;28;20819;-69
2020/12/24 11:39:11;;;;;;;1.07;0.30;;;10.40;99.90;;;;;;5033743;28;20442;-68
2020/12/24 11:41:37;;;;;;;0.70;0.30;;;10.40;99.90;;;;;;5033305;28;20492;-68
2020/12/24 11:44:04;;;;;;;0.40;0.33;;;10.20;99.90;;;;;;5032751;28;20438;-68
2020/12/24 11:46:30;;;;;;;0.40;0.40;;;10.00;99.90;;;;;;5033199;28;20910;-69
2020/12/24 11:48:57;;;;;;;1.07;0.40;;;10.10;99.90;;;;;;5033537;28;20431;-69
2020/12/24 11:51:23;;;;;;;0.43;0.30;;;10.10;99.90;;;;;;5033088;28;20974;-69
2020/12/24 11:53:50;;;;;;;0.40;0.30;;;10.30;99.90;;;;;;5033228;28;20478;-69
2020/12/24 11:56:19;;;;;;;1.03;0.40;;;10.40;99.90;;;;;;5033360;28;20423;-69
2020/12/24 11:58:48;;;;;;;1.13;0.40;;;10.40;99.90;;;;;;5033269;28;20556;-69
2020/12/24 12:01:14;;;;;;;0.40;0.40;;;10.40;99.90;;;;;;5032923;28;20827;-69
2020/12/24 12:03:40;;;;;;;0.50;0.40;;;10.40;99.90;;;;;;5033328;28;20435;-68
2020/12/24 12:06:07;;;;;;;0.73;0.30;;;10.50;99.90;;;;;;5033248;28;20438;-69
2020/12/24 12:08:33;;;;;;;0.47;0.30;;;10.40;99.90;;;;;;5033270;28;20427;-69
2020/12/24 12:11:01;;;;;;;0.47;0.40;;;10.40;99.90;;;;;;5033164;28;20477;-69
2020/12/24 12:13:28;;;;;;;0.60;0.40;;;10.30;99.90;;;;;;5033153;28;20435;-68
2020/12/24 12:15:55;;;;;;;0.40;0.30;;;10.30;99.90;;;;;;5033210;28;20908;-69
2020/12/24 12:21:06;;;;;;;0.60;0.40;;;10.20;99.90;;;;;;5179162;22;20511;-67
2020/12/24 12:23:33;;;;;;;0.50;0.50;;;10.10;99.90;;;;;;4993859;28;20428;-67
2020/12/24 12:26:01;;;;;;;1.37;0.40;;;10.00;99.90;;;;;;5217810;22;20451;31
2020/12/24 12:28:28;;;;;;;0.40;0.30;;;10.00;99.90;;;;;;4973476;28;20468;-68
2020/12/24 12:41:24;;;;;;;2.27;0.30;;;10.30;99.90;;;;;;5580308;22;20487;-66
2020/12/24 12:49:09;;;;;;;0.40;0.40;;;10.00;99.90;;;;;;5584073;22;20455;-70
2020/12/24 12:51:35;;;;;;;1.13;0.40;;;9.80;99.90;;;;;;4997646;28;20971;-70
2020/12/24 12:54:01;;;;;;;0.63;0.40;;;9.80;99.90;;;;;;4997441;28;20436;-70
2020/12/24 12:56:28;;;;;;;0.40;0.37;;;9.70;99.90;;;;;;4997085;28;20429;-70
2020/12/24 12:58:54;;;;;;;0.40;0.40;;;9.60;99.90;;;;;;4997213;28;20469;-70
2020/12/24 13:01:20;;;;;;;0.50;0.40;;;9.60;99.90;;;;;;4997164;28;20464;-70
2020/12/24 13:06:23;;;;;;;0.40;0.30;;;9.50;99.90;;;;;;5552228;22;20731;-67
2020/12/24 13:11:24;;;;;;;1.47;0.50;;;9.50;99.90;;;;;;6056619;22;20607;-69
2020/12/24 13:13:50;;;;;;;2.00;0.37;;;9.50;99.90;;;;;;4997327;28;20459;-69
2020/12/24 13:16:24;;;;;;;0.40;0.40;;;9.50;99.90;;;;;;4996890;28;20420;-69
2020/12/24 13:18:50;;;;;;;0.40;0.30;;;9.40;99.90;;;;;;4996702;28;20464;-69
2020/12/24 13:21:16;;;;;;;0.40;0.40;;;9.30;99.90;;;;;;4996565;28;20782;-69